Murray, IA (50174)

4:26 AM CST on February 12, 2016 (GMT -0600)
IEM | | Change Station
CLOSE
Current Station
Personal Weather Station
Location: Afton, IA
Elevation: 1270 ft
Nearby Weather Stations

Elev 1270 ft 41.03 °N, 94.18 °W | Updated 17 minutes ago

Overcast
Overcast
21 °F
Feels Like 14 °F
N
5
Wind Variable Wind from WNW
Gusts 0.0 mph

Today
High -- | Low -- °F
--% Chance of Precip.
Yesterday
High -- | Low -- °F
Precip. -- in
Pressure 30.22 in
Visibility 10.0 miles
Clouds Overcast 1900 ft
Windchill 14 °F
Dew Point 21 °F
Humidity 100%
Rainfall in
Snow Depth Not available.
7:14 AM 5:45 PM
Waxing Crescent, 19% visible
METAR KI75 121015Z AUTO 26005KT 10SM OVC019 M06/M07 A3022 RMK AO2 T10561070
Pressure 30.22 in
Visibility 10.0 miles
Clouds Overcast 1900 ft
Windchill 14 °F
Dew Point 21 °F
Humidity 100%
Rainfall in
Snow Depth Not available.
7:14 AM 5:45 PM
Waxing Crescent, 19% visible
METAR KI75 121015Z AUTO 26005KT 10SM OVC019 M06/M07 A3022 RMK AO2 T10561070

10-Day Weather Forecast

Almanac

Astronomy

Feb. 12, 2016 Rise Set
Actual Time
Civil Twilight
Nautical Twilight
Astronomical Twilight
Moon
Length of Visible Light
Length of Day
Tomorrow will be .
, % of the Moon is Illuminated

Today's Extremes

State Highs State Lows

Community

WunderPhotos

Upload Photos

1,892,289 photos uploaded!

WunderBlog® & News

Nearby

Air Quality

  Air Quality AQ Index Pollutant
Not available.

Snow Depth

Station Depth Elevation

Earthquake Activity

City Distance Mag. Time & Date
Minimum magnitude displayed is 2.5.

Coastal Water Temperatures

Place Temperature

Stations

Nearby Weather Stations

Station Location Temp. Windchill Dew Point Humidity Wind Precip. Elev Updated Type
                   

Watches & Warnings

There are currently no watches in effect.